Terminal Aerodrome Forecast
Issued by NWS Omaha/Valley, NE

Home | Current Version | Previous Version | Graphics & Text | Print | Product List | Glossary On
Versions: 1 2 3 4 5 6 7 8 9 10 11 12 13 14 15 16 17 18 19 20 21 22 23 24 25 26 27 28 29 30 31 32 33 34 35 36 37 38 39 40 41 42 43
000
FTUS43 KOAX 271327 AAA
TAFOFK
TAF AMD
KOFK 271327Z 2713/2812 09005KT P6SM OVC040
      TEMPO 2713/2715 BKN035
     FM271600 13010KT P6SM BKN050
     FM271900 16013KT P6SM FEW025 BKN090
     FM272300 15012KT P6SM SCT090
     FM280500 18013KT P6SM FEW100=

USA.gov is the U.S. government's official web portal to all federal, state and local government web resources and services.